RJTL(METAR)
06/28 22:00
METAR RJTL 281300Z 13003KT 080V140 4500 BR FEW020 BKN230 22/20 Q1014
RMK 1CU020 A2994=
戻る
トップページへ戻る
IMOC Co,.Ltd.